createdAt,value
2022-11-29T00:01:11.486Z,92.78
2022-11-29T00:03:38.217Z,93.14
2022-11-29T00:06:20.226Z,93.46
2022-11-29T00:08:47.598Z,93.83
2022-11-29T00:11:38.723Z,93.93
2022-11-29T00:14:06.550Z,94.36
2022-11-29T00:16:33.486Z,93.70
2022-11-29T00:19:00.314Z,94.68
2022-11-29T00:21:26.956Z,94.27
2022-11-29T00:23:53.704Z,94.95
2022-11-29T00:26:20.383Z,95.76
2022-11-29T00:28:46.959Z,94.90
2022-11-29T00:31:16.166Z,94.43
2022-11-29T00:33:42.845Z,93.89
2022-11-29T00:36:10.183Z,94.15
2022-11-29T00:38:36.843Z,94.53
2022-11-29T00:41:03.615Z,95.04
2022-11-29T00:43:30.335Z,95.80
2022-11-29T00:45:57.164Z,95.07
2022-11-29T00:48:24.761Z,94.00
2022-11-29T00:50:51.427Z,93.94
2022-11-29T00:53:18.021Z,93.72
2022-11-29T00:55:47.316Z,93.50
2022-11-29T00:58:14.044Z,93.35
2022-11-29T01:00:40.685Z,93.72
2022-11-29T01:03:07.687Z,93.96
2022-11-29T01:05:34.229Z,94.74
2022-11-29T01:08:01.090Z,95.10
2022-11-29T01:10:28.040Z,94.04
2022-11-29T01:12:55.299Z,94.01
2022-11-29T01:15:22.201Z,94.65
2022-11-29T01:17:49.467Z,93.76
2022-11-29T01:20:17.152Z,94.49
2022-11-29T01:22:43.734Z,94.85
2022-11-29T01:25:12.444Z,94.91
2022-11-29T01:27:39.716Z,95.48
2022-11-29T01:30:08.317Z,95.02
2022-11-29T01:32:35.316Z,93.93
2022-11-29T01:35:02.280Z,94.28
2022-11-29T01:37:29.836Z,94.75
2022-11-29T01:39:56.517Z,94.12
2022-11-29T01:42:23.419Z,94.09
2022-11-29T01:44:49.903Z,93.71
2022-11-29T01:47:19.625Z,93.75
2022-11-29T01:49:49.685Z,93.74
2022-11-29T01:52:34.228Z,93.63
2022-11-29T01:55:05.433Z,94.45
2022-11-29T01:57:35.187Z,94.95
2022-11-29T02:00:08.668Z,92.90
2022-11-29T02:02:47.144Z,93.46
2022-11-29T02:05:16.789Z,95.20
2022-11-29T02:07:46.517Z,96.58
2022-11-29T02:10:15.639Z,96.39
2022-11-29T02:13:33.012Z,97.87
2022-11-29T02:16:05.002Z,98.68
2022-11-29T02:19:09.273Z,100.00
2022-11-29T02:21:44.802Z,100.00
2022-11-29T02:24:25.468Z,100.00
2022-11-29T02:27:18.385Z,100.00
2022-11-29T02:29:53.656Z,100.00
2022-11-29T02:32:35.451Z,100.00
2022-11-29T02:35:07.874Z,100.00
2022-11-29T02:38:11.793Z,100.00
2022-11-29T02:41:10.841Z,100.00
2022-11-29T02:43:40.471Z,100.00
2022-11-29T02:46:10.221Z,100.00
2022-11-29T02:48:50.793Z,100.00
2022-11-29T02:51:43.825Z,100.00
2022-11-29T02:54:26.263Z,100.00
2022-11-29T02:57:21.604Z,100.00
2022-11-29T03:00:02.219Z,100.00
2022-11-29T03:02:28.717Z,100.00
2022-11-29T03:04:57.992Z,100.00
2022-11-29T03:07:46.821Z,100.00
2022-11-29T03:10:34.547Z,100.00
2022-11-29T03:13:05.215Z,100.00
2022-11-29T03:15:44.708Z,100.00
2022-11-29T03:18:32.855Z,100.00
2022-11-29T03:21:23.768Z,100.00
2022-11-29T03:23:56.871Z,100.00
2022-11-29T03:26:31.986Z,100.00
2022-11-29T03:29:26.938Z,100.00
2022-11-29T03:32:08.979Z,100.00
2022-11-29T03:35:02.368Z,100.00
2022-11-29T03:37:44.047Z,100.00
2022-11-29T03:40:14.732Z,100.00
2022-11-29T03:42:41.178Z,100.00
2022-11-29T03:45:20.014Z,100.00
2022-11-29T03:47:57.871Z,100.00
2022-11-29T03:50:31.879Z,100.00
2022-11-29T03:53:12.734Z,100.00
2022-11-29T03:56:01.332Z,100.00
2022-11-29T03:58:39.374Z,100.00
2022-11-29T04:01:21.277Z,100.00
2022-11-29T04:04:08.831Z,100.00
2022-11-29T04:07:17.551Z,100.00
2022-11-29T04:10:05.648Z,100.00
2022-11-29T04:12:49.219Z,100.00
2022-11-29T04:15:40.684Z,100.00
2022-11-29T04:18:38.359Z,100.00
2022-11-29T04:21:29.485Z,100.00
2022-11-29T04:24:40.323Z,100.00
2022-11-29T04:27:12.952Z,100.00
2022-11-29T04:30:02.045Z,100.00
2022-11-29T04:33:03.013Z,100.00
2022-11-29T04:35:32.208Z,100.00
2022-11-29T04:38:01.731Z,100.00
2022-11-29T04:40:53.086Z,100.00
2022-11-29T04:43:41.368Z,100.00
2022-11-29T04:46:53.010Z,100.00
2022-11-29T04:49:34.576Z,100.00
2022-11-29T04:52:38.913Z,100.00
2022-11-29T04:55:20.792Z,100.00
2022-11-29T04:58:03.946Z,100.00
2022-11-29T05:00:39.655Z,100.00
2022-11-29T05:03:38.947Z,100.00
2022-11-29T05:06:17.788Z,100.00
2022-11-29T05:09:06.043Z,100.00
2022-11-29T05:11:44.649Z,100.00
2022-11-29T05:14:17.762Z,100.00
2022-11-29T05:16:53.492Z,100.00
2022-11-29T05:19:19.993Z,100.00
2022-11-29T05:22:05.242Z,100.00
2022-11-29T05:24:53.712Z,100.00
2022-11-29T05:27:28.312Z,100.00
2022-11-29T05:30:21.189Z,100.00
2022-11-29T05:32:50.822Z,100.00
2022-11-29T05:35:26.232Z,100.00
2022-11-29T05:37:56.898Z,100.00
2022-11-29T05:40:26.343Z,100.00
2022-11-29T05:43:12.866Z,100.00
2022-11-29T05:45:51.221Z,100.00
2022-11-29T05:48:28.593Z,100.00
2022-11-29T05:51:13.933Z,100.00
2022-11-29T05:53:54.999Z,100.00
2022-11-29T05:56:33.588Z,100.00
2022-11-29T05:59:08.191Z,100.00
2022-11-29T06:01:42.053Z,100.00
2022-11-29T06:04:34.371Z,100.00
2022-11-29T06:07:22.618Z,100.00
2022-11-29T06:10:00.534Z,100.00
2022-11-29T06:12:31.275Z,100.00
2022-11-29T06:15:17.487Z,100.00
2022-11-29T06:18:06.748Z,100.00
2022-11-29T06:20:42.717Z,100.00
2022-11-29T06:23:09.239Z,100.00
2022-11-29T06:26:03.487Z,100.00
2022-11-29T06:29:01.952Z,100.00
2022-11-29T06:31:34.262Z,100.00
2022-11-29T06:34:16.392Z,100.00
2022-11-29T06:36:48.966Z,100.00
2022-11-29T06:39:16.179Z,100.00
2022-11-29T06:41:43.254Z,100.00
2022-11-29T06:44:10.684Z,100.00
2022-11-29T06:46:56.162Z,100.00
2022-11-29T06:49:27.088Z,100.00
2022-11-29T06:51:59.263Z,100.00
2022-11-29T06:54:38.913Z,100.00
2022-11-29T06:57:24.681Z,100.00
2022-11-29T07:00:20.552Z,100.00
2022-11-29T07:03:11.180Z,100.00
2022-11-29T07:05:38.279Z,100.00
2022-11-29T07:08:25.430Z,100.00
2022-11-29T07:10:54.911Z,100.00
2022-11-29T07:13:21.813Z,100.00
2022-11-29T07:15:51.558Z,100.00
2022-11-29T07:18:46.992Z,100.00
2022-11-29T07:21:25.554Z,100.00
2022-11-29T07:24:02.697Z,100.00
2022-11-29T07:26:33.295Z,100.00
2022-11-29T07:28:59.692Z,100.00
2022-11-29T07:31:43.561Z,100.00
2022-11-29T07:34:49.936Z,100.00
2022-11-29T07:38:00.604Z,100.00
2022-11-29T07:40:49.688Z,100.00
2022-11-29T07:43:40.335Z,100.00
2022-11-29T07:46:06.997Z,100.00
2022-11-29T07:48:33.556Z,100.00
2022-11-29T07:51:00.934Z,100.00
2022-11-29T07:53:28.943Z,100.00
2022-11-29T07:55:55.575Z,100.00
2022-11-29T07:58:22.175Z,100.00
2022-11-29T08:00:49.051Z,100.00
2022-11-29T08:03:15.704Z,100.00
2022-11-29T08:05:47.251Z,100.00
2022-11-29T08:08:14.161Z,100.00
2022-11-29T08:10:40.736Z,100.00
2022-11-29T08:13:07.345Z,100.00
2022-11-29T08:15:33.979Z,100.00
2022-11-29T08:18:02.362Z,100.00
2022-11-29T08:20:28.928Z,100.00
2022-11-29T08:22:57.396Z,100.00
2022-11-29T08:25:24.582Z,100.00
2022-11-29T08:27:51.706Z,100.00
2022-11-29T08:30:21.981Z,100.00
2022-11-29T08:32:51.526Z,100.00
2022-11-29T08:35:23.366Z,100.00
2022-11-29T08:37:50.507Z,100.00
2022-11-29T08:40:17.812Z,100.00
2022-11-29T08:42:44.469Z,100.00
2022-11-29T08:45:11.856Z,100.00
2022-11-29T08:47:39.147Z,100.00
2022-11-29T08:50:15.047Z,100.00
2022-11-29T08:53:06.077Z,100.00
2022-11-29T08:55:39.851Z,100.00
2022-11-29T08:58:09.386Z,100.00
2022-11-29T09:00:37.429Z,100.00
2022-11-29T09:03:24.396Z,100.00
2022-11-29T09:05:52.246Z,100.00
2022-11-29T09:08:19.017Z,100.00
2022-11-29T09:10:46.015Z,100.00
2022-11-29T09:13:12.648Z,100.00
2022-11-29T09:15:41.847Z,100.00
2022-11-29T09:18:08.510Z,100.00
2022-11-29T09:20:35.203Z,100.00
2022-11-29T09:23:01.778Z,100.00
2022-11-29T09:25:28.686Z,100.00
2022-11-29T09:27:58.163Z,100.00
2022-11-29T09:30:24.910Z,100.00
2022-11-29T09:32:51.616Z,100.00
2022-11-29T09:35:18.283Z,100.00
2022-11-29T09:37:44.883Z,100.00
2022-11-29T09:40:18.156Z,100.00
2022-11-29T09:42:52.285Z,100.00
2022-11-29T09:45:30.306Z,100.00
2022-11-29T09:48:33.011Z,100.00
2022-11-29T09:51:24.161Z,100.00
2022-11-29T09:53:50.679Z,100.00
2022-11-29T09:56:41.215Z,100.00
2022-11-29T09:59:27.763Z,100.00
2022-11-29T10:02:02.698Z,100.00
2022-11-29T10:04:36.352Z,100.00
2022-11-29T10:07:21.553Z,100.00
2022-11-29T10:09:56.100Z,100.00
2022-11-29T10:12:35.965Z,100.00
2022-11-29T10:15:19.630Z,100.00
2022-11-29T10:17:55.267Z,100.00
2022-11-29T10:20:29.831Z,100.00
2022-11-29T10:23:21.924Z,100.00
2022-11-29T10:25:51.583Z,100.00
2022-11-29T10:28:25.817Z,100.00
2022-11-29T10:30:57.465Z,100.00
2022-11-29T10:33:29.699Z,100.00
2022-11-29T10:35:59.566Z,100.00
2022-11-29T10:38:31.112Z,100.00
2022-11-29T10:41:05.432Z,99.68
2022-11-29T10:43:32.017Z,100.00
2022-11-29T10:45:59.102Z,99.39
2022-11-29T10:48:31.696Z,99.11
2022-11-29T10:50:58.665Z,100.00
2022-11-29T10:53:35.936Z,100.00
2022-11-29T10:56:14.049Z,100.00
2022-11-29T10:59:06.102Z,100.00
2022-11-29T11:01:38.262Z,99.50
2022-11-29T11:04:09.842Z,99.78
2022-11-29T11:06:49.660Z,100.00
2022-11-29T11:09:21.086Z,100.00
2022-11-29T11:11:57.075Z,98.55
2022-11-29T11:14:27.222Z,99.64
2022-11-29T11:16:54.055Z,99.59
2022-11-29T11:19:32.672Z,99.98
2022-11-29T11:22:03.996Z,99.09
2022-11-29T11:24:39.272Z,100.00
2022-11-29T11:27:05.927Z,97.43
2022-11-29T11:29:37.801Z,96.46
2022-11-29T11:32:05.148Z,96.24
2022-11-29T11:34:36.123Z,98.30
2022-11-29T11:37:14.810Z,98.34
2022-11-29T11:39:43.265Z,97.28
2022-11-29T11:42:35.163Z,97.80
2022-11-29T11:45:04.490Z,98.17
2022-11-29T11:47:35.754Z,99.62
2022-11-29T11:50:02.480Z,98.95
2022-11-29T11:52:30.598Z,98.83
2022-11-29T11:55:04.694Z,98.87
2022-11-29T11:57:31.731Z,98.33
2022-11-29T12:00:06.444Z,98.08
2022-11-29T12:02:40.719Z,97.66
2022-11-29T12:05:16.993Z,98.25
2022-11-29T12:10:37.540Z,96.93
2022-11-29T12:13:04.911Z,97.65
2022-11-29T12:15:39.781Z,96.05
2022-11-29T12:18:36.067Z,94.82
2022-11-29T12:21:14.217Z,97.63
2022-11-29T12:23:47.559Z,97.82
2022-11-29T12:26:55.211Z,96.94
2022-11-29T12:29:20.025Z,95.56
2022-11-29T12:32:08.159Z,95.64
2022-11-29T12:34:43.735Z,97.58
2022-11-29T12:37:30.182Z,96.88
2022-11-29T12:40:13.762Z,97.47
2022-11-29T12:43:01.560Z,98.26
2022-11-29T12:45:40.558Z,98.36
2022-11-29T12:48:19.319Z,97.37
2022-11-29T12:51:12.950Z,97.17
2022-11-29T12:54:07.488Z,95.42
2022-11-29T12:57:04.171Z,96.68
2022-11-29T12:59:30.708Z,96.24
2022-11-29T13:02:03.930Z,97.88
2022-11-29T13:04:36.631Z,98.16
2022-11-29T13:07:22.406Z,98.03
2022-11-29T13:10:04.510Z,98.93
2022-11-29T13:12:39.792Z,99.52
2022-11-29T13:15:14.817Z,97.06
2022-11-29T13:17:48.776Z,96.79
2022-11-29T13:20:30.148Z,98.16
2022-11-29T13:23:02.968Z,98.80
2022-11-29T13:25:42.718Z,98.24
2022-11-29T13:28:26.325Z,97.44
2022-11-29T13:30:56.936Z,96.46
2022-11-29T13:33:24.805Z,96.08
2022-11-29T13:36:15.679Z,96.58
2022-11-29T13:38:58.117Z,97.93
2022-11-29T13:41:32.105Z,98.50
2022-11-29T13:44:13.187Z,98.61
2022-11-29T13:46:39.744Z,96.51
2022-11-29T13:49:06.502Z,97.05
2022-11-29T13:51:37.291Z,98.02
2022-11-29T13:54:29.043Z,98.35
2022-11-29T13:57:09.412Z,98.81
2022-11-29T13:59:44.268Z,97.75
2022-11-29T14:02:43.445Z,97.55
2022-11-29T14:05:26.054Z,98.11
2022-11-29T14:08:37.711Z,99.38
2022-11-29T14:11:14.114Z,99.52
2022-11-29T14:14:07.549Z,98.06
2022-11-29T14:16:37.831Z,98.40
2022-11-29T14:19:10.263Z,99.14
2022-11-29T14:22:07.274Z,98.94
2022-11-29T14:24:36.848Z,98.10
2022-11-29T14:27:06.638Z,99.63
2022-11-29T14:29:52.531Z,99.20
2022-11-29T14:32:25.196Z,98.95
2022-11-29T14:35:11.820Z,99.89
2022-11-29T14:38:02.855Z,98.74
2022-11-29T14:40:43.248Z,98.61
2022-11-29T14:43:19.965Z,99.77
2022-11-29T14:45:46.915Z,99.03
2022-11-29T14:48:44.298Z,98.67
2022-11-29T14:51:19.634Z,98.29
2022-11-29T14:53:49.740Z,99.22
2022-11-29T14:56:31.721Z,99.33
2022-11-29T14:59:35.807Z,98.77
2022-11-29T15:02:07.136Z,99.02
2022-11-29T15:04:35.617Z,97.95
2022-11-29T15:07:03.527Z,99.06
2022-11-29T15:09:34.178Z,98.79
2022-11-29T15:12:08.583Z,98.99
2022-11-29T15:14:44.738Z,99.86
2022-11-29T15:17:56.349Z,99.63
2022-11-29T15:20:34.828Z,99.47
2022-11-29T15:23:07.172Z,99.32
2022-11-29T15:25:34.462Z,99.03
2022-11-29T15:28:03.774Z,98.50
2022-11-29T15:30:36.409Z,98.57
2022-11-29T15:33:21.007Z,100.00
2022-11-29T15:35:52.799Z,100.00
2022-11-29T15:38:21.675Z,100.00
2022-11-29T15:40:54.131Z,99.78
2022-11-29T15:43:26.832Z,99.28
2022-11-29T15:45:55.543Z,100.00
2022-11-29T15:48:23.921Z,100.00
2022-11-29T15:50:55.918Z,98.82
2022-11-29T15:53:40.567Z,99.58
2022-11-29T15:56:24.993Z,99.77
2022-11-29T15:58:59.487Z,100.00
2022-11-29T16:01:26.453Z,100.00
2022-11-29T16:03:55.689Z,100.00
2022-11-29T16:06:41.524Z,100.00
2022-11-29T16:09:13.057Z,100.00
2022-11-29T16:11:39.815Z,100.00
2022-11-29T16:14:22.626Z,100.00
2022-11-29T16:16:52.715Z,100.00
2022-11-29T16:19:25.818Z,100.00
2022-11-29T16:22:23.271Z,99.99
2022-11-29T16:25:05.816Z,100.00
2022-11-29T16:27:36.340Z,100.00
2022-11-29T16:30:04.847Z,100.00
2022-11-29T16:32:42.611Z,100.00
2022-11-29T16:35:20.861Z,100.00
2022-11-29T16:37:48.234Z,100.00
2022-11-29T16:40:22.768Z,100.00
2022-11-29T16:43:04.639Z,99.50
2022-11-29T16:45:34.430Z,99.14
2022-11-29T16:48:02.796Z,99.45
2022-11-29T16:50:31.400Z,98.75
2022-11-29T16:53:34.984Z,99.05
2022-11-29T16:56:01.806Z,99.34
2022-11-29T16:58:28.551Z,99.21
2022-11-29T17:00:55.531Z,99.31
2022-11-29T17:03:22.543Z,100.00
2022-11-29T17:05:49.958Z,99.03
2022-11-29T17:08:16.527Z,100.00
2022-11-29T17:10:43.103Z,98.57
2022-11-29T17:13:11.408Z,98.33
2022-11-29T17:15:37.944Z,99.19
2022-11-29T17:18:04.597Z,99.17
2022-11-29T17:20:31.152Z,98.20
2022-11-29T17:22:57.844Z,97.50
2022-11-29T17:25:24.409Z,99.16
2022-11-29T17:27:51.147Z,99.48
2022-11-29T17:30:17.931Z,98.81
2022-11-29T17:32:44.708Z,98.13
2022-11-29T17:35:11.455Z,97.64
2022-11-29T17:37:37.997Z,97.90
2022-11-29T17:40:05.363Z,98.06
2022-11-29T17:42:31.907Z,97.96
2022-11-29T17:44:58.410Z,97.04
2022-11-29T17:47:25.022Z,96.13
2022-11-29T17:49:51.550Z,96.63
2022-11-29T17:52:18.089Z,95.74
2022-11-29T17:54:44.640Z,96.17
2022-11-29T17:57:11.244Z,96.37
2022-11-29T17:59:37.810Z,96.02
2022-11-29T18:02:04.614Z,95.03
2022-11-29T18:04:31.321Z,95.39
2022-11-29T18:06:58.647Z,95.49
2022-11-29T18:09:25.241Z,95.71
2022-11-29T18:11:52.473Z,94.91
2022-11-29T18:14:22.925Z,94.50
2022-11-29T18:16:50.111Z,94.34
2022-11-29T18:19:19.034Z,95.56
2022-11-29T18:21:46.142Z,94.07
2022-11-29T18:24:13.218Z,94.47
2022-11-29T18:26:39.977Z,94.19
2022-11-29T18:29:07.375Z,93.56
2022-11-29T18:31:40.024Z,94.48
2022-11-29T18:34:09.930Z,95.08
2022-11-29T18:36:45.377Z,94.88
2022-11-29T18:39:14.327Z,93.63
2022-11-29T18:41:43.649Z,94.01
2022-11-29T18:44:13.051Z,94.51
2022-11-29T18:46:41.510Z,93.79
2022-11-29T18:49:10.656Z,94.67
2022-11-29T18:51:38.499Z,94.46
2022-11-29T18:54:05.864Z,94.89
2022-11-29T18:56:34.504Z,95.53
2022-11-29T18:59:16.810Z,93.23
2022-11-29T19:01:45.360Z,92.94
2022-11-29T19:04:14.904Z,93.86
2022-11-29T19:06:42.333Z,95.04
2022-11-29T19:09:16.884Z,95.16
2022-11-29T19:11:43.738Z,95.50
2022-11-29T19:14:12.450Z,95.21
2022-11-29T19:16:42.042Z,95.40
2022-11-29T19:19:08.681Z,94.92
2022-11-29T19:21:35.587Z,95.34
2022-11-29T19:24:04.574Z,95.65
2022-11-29T19:26:33.369Z,94.82
2022-11-29T19:29:01.736Z,94.41
2022-11-29T19:31:29.487Z,95.21
2022-11-29T19:33:57.268Z,95.43
2022-11-29T19:36:29.854Z,94.14
2022-11-29T19:38:59.778Z,94.57
2022-11-29T19:41:28.538Z,94.55
2022-11-29T19:44:01.671Z,94.78
2022-11-29T19:46:31.756Z,95.01
2022-11-29T19:48:59.783Z,93.90
2022-11-29T19:51:28.754Z,95.08
2022-11-29T19:53:57.811Z,95.18
2022-11-29T19:56:24.701Z,95.85
2022-11-29T19:58:52.101Z,94.97
2022-11-29T20:01:22.748Z,95.75
2022-11-29T20:03:49.517Z,94.70
2022-11-29T20:06:17.431Z,94.65
2022-11-29T20:08:44.802Z,94.05
2022-11-29T20:11:15.412Z,95.56
2022-11-29T20:13:43.959Z,96.27
2022-11-29T20:16:15.901Z,96.64
2022-11-29T20:18:50.353Z,96.83
2022-11-29T20:21:30.298Z,94.94
2022-11-29T20:23:59.205Z,96.45
2022-11-29T20:26:27.302Z,96.37
2022-11-29T20:28:54.032Z,94.82
2022-11-29T20:31:23.211Z,95.18
2022-11-29T20:33:52.646Z,95.71
2022-11-29T20:36:38.263Z,96.47
2022-11-29T20:39:31.672Z,96.33
2022-11-29T20:42:29.479Z,96.04
2022-11-29T20:45:05.822Z,95.41
2022-11-29T20:47:53.853Z,96.07
2022-11-29T20:50:26.420Z,95.37
2022-11-29T20:53:27.641Z,96.47
2022-11-29T20:55:54.213Z,96.67
2022-11-29T20:58:21.216Z,98.39
2022-11-29T21:00:48.050Z,96.73
2022-11-29T21:03:16.319Z,97.87
2022-11-29T21:05:43.314Z,98.61
2022-11-29T21:08:09.891Z,97.93
2022-11-29T21:10:36.696Z,98.46
2022-11-29T21:13:03.444Z,98.60
2022-11-29T21:15:30.600Z,99.63
2022-11-29T21:17:57.420Z,100.00
2022-11-29T21:20:26.317Z,100.00
2022-11-29T21:23:01.953Z,100.00
2022-11-29T21:25:45.610Z,100.00
2022-11-29T21:28:14.420Z,100.00
2022-11-29T21:30:42.385Z,100.00
2022-11-29T21:33:09.785Z,100.00
2022-11-29T21:35:39.705Z,100.00
2022-11-29T21:38:12.448Z,100.00
2022-11-29T21:40:38.981Z,100.00
2022-11-29T21:43:05.654Z,100.00
2022-11-29T21:45:32.231Z,100.00
2022-11-29T21:48:02.051Z,100.00
2022-11-29T21:50:28.614Z,100.00
2022-11-29T21:52:56.019Z,100.00
2022-11-29T21:55:22.598Z,100.00
2022-11-29T21:57:49.135Z,100.00
2022-11-29T22:00:16.177Z,100.00
2022-11-29T22:02:42.785Z,100.00
2022-11-29T22:05:09.733Z,100.00
2022-11-29T22:07:36.398Z,100.00
2022-11-29T22:10:09.925Z,99.73
2022-11-29T22:12:38.354Z,99.65
2022-11-29T22:15:05.481Z,99.14
2022-11-29T22:17:32.047Z,98.25
2022-11-29T22:19:58.578Z,98.85
2022-11-29T22:22:28.094Z,99.38
2022-11-29T22:24:54.951Z,99.62
2022-11-29T22:27:21.496Z,99.54
2022-11-29T22:29:48.396Z,99.08
2022-11-29T22:32:15.070Z,99.38
2022-11-29T22:34:41.605Z,98.05
2022-11-29T22:37:08.138Z,97.73
2022-11-29T22:39:34.693Z,98.30
2022-11-29T22:42:01.284Z,98.98
2022-11-29T22:44:27.849Z,98.87
2022-11-29T22:46:54.491Z,98.85
2022-11-29T22:49:21.249Z,98.61
2022-11-29T22:51:47.864Z,97.95
2022-11-29T22:54:17.932Z,98.06
2022-11-29T22:56:46.108Z,98.44
2022-11-29T22:59:12.982Z,98.39
2022-11-29T23:01:40.904Z,98.92
2022-11-29T23:04:10.662Z,98.39
2022-11-29T23:06:40.741Z,98.33
2022-11-29T23:09:21.176Z,99.32
2022-11-29T23:11:53.853Z,99.19
2022-11-29T23:14:20.623Z,98.58
2022-11-29T23:16:47.293Z,98.40
2022-11-29T23:19:16.129Z,99.16
2022-11-29T23:21:45.394Z,98.29
2022-11-29T23:24:12.809Z,98.22
2022-11-29T23:26:41.493Z,98.62
2022-11-29T23:29:11.692Z,99.54
2022-11-29T23:31:39.039Z,99.76
2022-11-29T23:34:05.689Z,98.34
2022-11-29T23:36:32.507Z,98.97
2022-11-29T23:38:59.090Z,99.63
2022-11-29T23:41:25.767Z,99.85
2022-11-29T23:43:52.445Z,98.53
2022-11-29T23:46:21.126Z,98.33
2022-11-29T23:48:48.433Z,97.96
2022-11-29T23:51:15.762Z,98.14
2022-11-29T23:53:42.750Z,97.58
2022-11-29T23:56:15.971Z,97.95
2022-11-29T23:58:43.791Z,97.46
